sensor_id;sensor_type;location;lat;lon;timestamp;P1;durP1;ratioP1;P2;durP2;ratioP2
50066;SDS011;35952;52.524;13.340;2022-12-18T00:01:52;38.60;;;19.33;;
50066;SDS011;35952;52.524;13.340;2022-12-18T00:04:22;41.80;;;17.60;;
50066;SDS011;35952;52.524;13.340;2022-12-18T00:06:48;34.65;;;16.10;;
50066;SDS011;35952;52.524;13.340;2022-12-18T00:09:14;38.47;;;17.47;;
50066;SDS011;35952;52.524;13.340;2022-12-18T00:11:40;31.35;;;14.70;;
50066;SDS011;35952;52.524;13.340;2022-12-18T00:14:06;34.50;;;15.70;;
50066;SDS011;35952;52.524;13.340;2022-12-18T00:16:35;34.13;;;16.23;;
50066;SDS011;35952;52.524;13.340;2022-12-18T00:19:02;36.65;;;14.40;;
50066;SDS011;35952;52.524;13.340;2022-12-18T00:21:29;36.13;;;16.23;;
50066;SDS011;35952;52.524;13.340;2022-12-18T00:23:56;42.65;;;17.70;;
50066;SDS011;35952;52.524;13.340;2022-12-18T00:26:22;40.00;;;17.23;;
50066;SDS011;35952;52.524;13.340;2022-12-18T00:28:50;39.28;;;17.98;;
50066;SDS011;35952;52.524;13.340;2022-12-18T00:31:18;36.25;;;16.77;;
50066;SDS011;35952;52.524;13.340;2022-12-18T00:33:45;35.55;;;16.50;;
50066;SDS011;35952;52.524;13.340;2022-12-18T00:36:15;34.65;;;15.23;;
50066;SDS011;35952;52.524;13.340;2022-12-18T00:38:44;34.25;;;18.38;;
50066;SDS011;35952;52.524;13.340;2022-12-18T00:41:11;34.83;;;15.20;;
50066;SDS011;35952;52.524;13.340;2022-12-18T00:43:38;35.70;;;16.85;;
50066;SDS011;35952;52.524;13.340;2022-12-18T00:46:04;30.08;;;15.85;;
50066;SDS011;35952;52.524;13.340;2022-12-18T00:48:30;40.95;;;15.82;;
50066;SDS011;35952;52.524;13.340;2022-12-18T00:50:56;43.50;;;15.18;;
50066;SDS011;35952;52.524;13.340;2022-12-18T00:53:22;42.73;;;16.70;;
50066;SDS011;35952;52.524;13.340;2022-12-18T00:55:47;43.87;;;17.40;;
50066;SDS011;35952;52.524;13.340;2022-12-18T00:58:14;47.37;;;19.20;;
50066;SDS011;35952;52.524;13.340;2022-12-18T01:00:41;44.53;;;17.13;;
50066;SDS011;35952;52.524;13.340;2022-12-18T01:03:07;39.22;;;17.55;;
50066;SDS011;35952;52.524;13.340;2022-12-18T01:05:34;42.90;;;16.00;;
50066;SDS011;35952;52.524;13.340;2022-12-18T01:08:03;32.65;;;15.70;;
50066;SDS011;35952;52.524;13.340;2022-12-18T01:10:29;36.83;;;17.00;;
50066;SDS011;35952;52.524;13.340;2022-12-18T01:12:54;34.17;;;16.17;;
50066;SDS011;35952;52.524;13.340;2022-12-18T01:15:20;34.60;;;15.27;;
50066;SDS011;35952;52.524;13.340;2022-12-18T01:17:46;33.67;;;16.13;;
50066;SDS011;35952;52.524;13.340;2022-12-18T01:20:11;51.17;;;19.27;;
50066;SDS011;35952;52.524;13.340;2022-12-18T01:22:37;41.65;;;16.75;;
50066;SDS011;35952;52.524;13.340;2022-12-18T01:25:03;36.90;;;15.23;;
50066;SDS011;35952;52.524;13.340;2022-12-18T01:27:30;39.63;;;16.90;;
50066;SDS011;35952;52.524;13.340;2022-12-18T01:29:57;48.38;;;18.33;;
50066;SDS011;35952;52.524;13.340;2022-12-18T01:32:23;50.90;;;19.90;;
50066;SDS011;35952;52.524;13.340;2022-12-18T01:34:48;37.73;;;17.53;;
50066;SDS011;35952;52.524;13.340;2022-12-18T01:37:14;41.70;;;21.10;;
50066;SDS011;35952;52.524;13.340;2022-12-18T01:39:39;38.70;;;18.80;;
50066;SDS011;35952;52.524;13.340;2022-12-18T01:42:10;45.10;;;19.37;;
50066;SDS011;35952;52.524;13.340;2022-12-18T01:44:54;41.92;;;18.50;;
50066;SDS011;35952;52.524;13.340;2022-12-18T01:47:43;44.97;;;19.65;;
50066;SDS011;35952;52.524;13.340;2022-12-18T01:50:29;34.58;;;16.08;;
50066;SDS011;35952;52.524;13.340;2022-12-18T01:55:39;51.05;;;18.83;;
50066;SDS011;35952;52.524;13.340;2022-12-18T01:58:11;47.45;;;20.88;;
50066;SDS011;35952;52.524;13.340;2022-12-18T02:00:37;45.53;;;20.10;;
50066;SDS011;35952;52.524;13.340;2022-12-18T02:03:02;33.93;;;17.53;;
50066;SDS011;35952;52.524;13.340;2022-12-18T02:08:19;37.78;;;15.50;;
50066;SDS011;35952;52.524;13.340;2022-12-18T02:10:57;48.92;;;19.75;;
50066;SDS011;35952;52.524;13.340;2022-12-18T02:14:04;47.72;;;17.92;;
50066;SDS011;35952;52.524;13.340;2022-12-18T02:16:57;47.40;;;17.70;;
50066;SDS011;35952;52.524;13.340;2022-12-18T02:19:47;41.10;;;17.88;;
50066;SDS011;35952;52.524;13.340;2022-12-18T02:22:29;44.85;;;18.23;;
50066;SDS011;35952;52.524;13.340;2022-12-18T02:28:06;52.55;;;18.38;;
50066;SDS011;35952;52.524;13.340;2022-12-18T02:30:36;48.35;;;20.27;;
50066;SDS011;35952;52.524;13.340;2022-12-18T02:33:04;48.05;;;20.13;;
50066;SDS011;35952;52.524;13.340;2022-12-18T02:35:33;51.20;;;20.15;;
50066;SDS011;35952;52.524;13.340;2022-12-18T02:38:00;45.90;;;17.90;;
50066;SDS011;35952;52.524;13.340;2022-12-18T02:40:27;51.67;;;19.20;;
50066;SDS011;35952;52.524;13.340;2022-12-18T02:42:54;46.45;;;18.52;;
50066;SDS011;35952;52.524;13.340;2022-12-18T02:45:19;53.10;;;18.67;;
50066;SDS011;35952;52.524;13.340;2022-12-18T02:47:46;42.50;;;17.17;;
50066;SDS011;35952;52.524;13.340;2022-12-18T02:53:05;39.13;;;18.45;;
50066;SDS011;35952;52.524;13.340;2022-12-18T02:55:52;39.53;;;19.00;;
50066;SDS011;35952;52.524;13.340;2022-12-18T02:58:46;50.38;;;18.00;;
50066;SDS011;35952;52.524;13.340;2022-12-18T03:01:30;46.05;;;17.17;;
50066;SDS011;35952;52.524;13.340;2022-12-18T03:04:10;39.67;;;18.10;;
50066;SDS011;35952;52.524;13.340;2022-12-18T03:06:40;53.50;;;20.15;;
50066;SDS011;35952;52.524;13.340;2022-12-18T03:09:19;44.00;;;18.45;;
50066;SDS011;35952;52.524;13.340;2022-12-18T03:11:53;51.22;;;19.08;;
50066;SDS011;35952;52.524;13.340;2022-12-18T03:14:40;37.05;;;17.05;;
50066;SDS011;35952;52.524;13.340;2022-12-18T03:17:11;43.53;;;18.80;;
50066;SDS011;35952;52.524;13.340;2022-12-18T03:19:39;38.10;;;17.38;;
50066;SDS011;35952;52.524;13.340;2022-12-18T03:22:07;47.13;;;17.25;;
50066;SDS011;35952;52.524;13.340;2022-12-18T03:24:33;41.47;;;16.92;;
50066;SDS011;35952;52.524;13.340;2022-12-18T03:27:04;48.58;;;21.10;;
50066;SDS011;35952;52.524;13.340;2022-12-18T03:29:34;43.97;;;19.25;;
50066;SDS011;35952;52.524;13.340;2022-12-18T03:32:05;46.28;;;18.30;;
50066;SDS011;35952;52.524;13.340;2022-12-18T03:34:34;53.50;;;19.17;;
50066;SDS011;35952;52.524;13.340;2022-12-18T03:37:02;43.08;;;18.60;;
50066;SDS011;35952;52.524;13.340;2022-12-18T03:39:29;43.03;;;18.70;;
50066;SDS011;35952;52.524;13.340;2022-12-18T03:41:58;47.58;;;17.95;;
50066;SDS011;35952;52.524;13.340;2022-12-18T03:47:12;41.28;;;18.60;;
50066;SDS011;35952;52.524;13.340;2022-12-18T03:52:30;46.38;;;18.48;;
50066;SDS011;35952;52.524;13.340;2022-12-18T03:55:01;40.70;;;17.25;;
50066;SDS011;35952;52.524;13.340;2022-12-18T03:57:29;55.20;;;19.63;;
50066;SDS011;35952;52.524;13.340;2022-12-18T03:59:57;39.40;;;17.23;;
50066;SDS011;35952;52.524;13.340;2022-12-18T04:02:31;48.03;;;18.05;;
50066;SDS011;35952;52.524;13.340;2022-12-18T04:04:59;38.72;;;19.05;;
50066;SDS011;35952;52.524;13.340;2022-12-18T04:07:29;48.60;;;21.33;;
50066;SDS011;35952;52.524;13.340;2022-12-18T04:09:56;54.70;;;21.10;;
50066;SDS011;35952;52.524;13.340;2022-12-18T04:12:24;52.45;;;22.00;;
50066;SDS011;35952;52.524;13.340;2022-12-18T04:14:53;48.42;;;23.70;;
50066;SDS011;35952;52.524;13.340;2022-12-18T04:17:19;76.75;;;26.13;;
50066;SDS011;35952;52.524;13.340;2022-12-18T04:19:45;66.63;;;24.83;;
50066;SDS011;35952;52.524;13.340;2022-12-18T04:22:11;74.37;;;24.70;;
50066;SDS011;35952;52.524;13.340;2022-12-18T04:24:36;59.07;;;25.37;;
50066;SDS011;35952;52.524;13.340;2022-12-18T04:27:02;58.70;;;23.10;;
50066;SDS011;35952;52.524;13.340;2022-12-18T04:29:28;69.28;;;25.85;;
50066;SDS011;35952;52.524;13.340;2022-12-18T04:31:53;49.97;;;23.33;;
50066;SDS011;35952;52.524;13.340;2022-12-18T04:34:19;74.57;;;25.00;;
50066;SDS011;35952;52.524;13.340;2022-12-18T04:36:45;70.55;;;23.90;;
50066;SDS011;35952;52.524;13.340;2022-12-18T04:39:11;68.03;;;24.70;;
50066;SDS011;35952;52.524;13.340;2022-12-18T04:41:37;57.07;;;27.90;;
50066;SDS011;35952;52.524;13.340;2022-12-18T04:44:02;70.63;;;27.10;;
50066;SDS011;35952;52.524;13.340;2022-12-18T04:46:28;57.20;;;24.23;;
50066;SDS011;35952;52.524;13.340;2022-12-18T04:48:53;69.40;;;27.50;;
50066;SDS011;35952;52.524;13.340;2022-12-18T04:51:19;67.37;;;29.20;;
50066;SDS011;35952;52.524;13.340;2022-12-18T04:53:44;78.03;;;26.27;;
50066;SDS011;35952;52.524;13.340;2022-12-18T04:56:11;69.47;;;25.67;;
50066;SDS011;35952;52.524;13.340;2022-12-18T04:58:39;81.30;;;26.83;;
50066;SDS011;35952;52.524;13.340;2022-12-18T05:01:05;70.78;;;28.33;;
50066;SDS011;35952;52.524;13.340;2022-12-18T05:03:35;64.00;;;24.45;;
50066;SDS011;35952;52.524;13.340;2022-12-18T05:06:01;82.25;;;24.85;;
50066;SDS011;35952;52.524;13.340;2022-12-18T05:08:28;74.28;;;26.17;;
50066;SDS011;35952;52.524;13.340;2022-12-18T05:11:00;72.40;;;27.43;;
50066;SDS011;35952;52.524;13.340;2022-12-18T05:13:26;68.30;;;23.63;;
50066;SDS011;35952;52.524;13.340;2022-12-18T05:15:53;57.85;;;23.35;;
50066;SDS011;35952;52.524;13.340;2022-12-18T05:18:19;66.10;;;25.43;;
50066;SDS011;35952;52.524;13.340;2022-12-18T05:20:44;76.83;;;25.43;;
50066;SDS011;35952;52.524;13.340;2022-12-18T05:23:10;68.50;;;28.90;;
50066;SDS011;35952;52.524;13.340;2022-12-18T05:25:35;63.53;;;23.57;;
50066;SDS011;35952;52.524;13.340;2022-12-18T05:28:01;57.33;;;23.47;;
50066;SDS011;35952;52.524;13.340;2022-12-18T05:30:26;68.83;;;25.20;;
50066;SDS011;35952;52.524;13.340;2022-12-18T05:32:52;66.47;;;25.80;;
50066;SDS011;35952;52.524;13.340;2022-12-18T05:35:18;71.90;;;23.47;;
50066;SDS011;35952;52.524;13.340;2022-12-18T05:37:43;68.13;;;22.17;;
50066;SDS011;35952;52.524;13.340;2022-12-18T05:40:09;68.00;;;22.80;;
50066;SDS011;35952;52.524;13.340;2022-12-18T05:42:35;60.25;;;23.95;;
50066;SDS011;35952;52.524;13.340;2022-12-18T05:45:00;60.80;;;23.43;;
50066;SDS011;35952;52.524;13.340;2022-12-18T05:47:26;61.13;;;22.57;;
50066;SDS011;35952;52.524;13.340;2022-12-18T05:49:53;62.47;;;23.60;;
50066;SDS011;35952;52.524;13.340;2022-12-18T05:52:19;47.80;;;22.37;;
50066;SDS011;35952;52.524;13.340;2022-12-18T05:54:44;51.30;;;22.03;;
50066;SDS011;35952;52.524;13.340;2022-12-18T05:57:10;55.00;;;20.43;;
50066;SDS011;35952;52.524;13.340;2022-12-18T05:59:35;57.30;;;25.03;;
50066;SDS011;35952;52.524;13.340;2022-12-18T06:02:01;58.23;;;22.37;;
50066;SDS011;35952;52.524;13.340;2022-12-18T06:04:27;55.20;;;25.43;;
50066;SDS011;35952;52.524;13.340;2022-12-18T06:06:55;60.25;;;24.52;;
50066;SDS011;35952;52.524;13.340;2022-12-18T06:09:21;73.57;;;23.43;;
50066;SDS011;35952;52.524;13.340;2022-12-18T06:11:46;62.57;;;23.17;;
50066;SDS011;35952;52.524;13.340;2022-12-18T06:14:12;54.03;;;23.57;;
50066;SDS011;35952;52.524;13.340;2022-12-18T06:16:37;66.70;;;25.00;;
50066;SDS011;35952;52.524;13.340;2022-12-18T06:19:04;61.77;;;26.40;;
50066;SDS011;35952;52.524;13.340;2022-12-18T06:21:31;61.65;;;25.95;;
50066;SDS011;35952;52.524;13.340;2022-12-18T06:23:57;69.97;;;27.90;;
50066;SDS011;35952;52.524;13.340;2022-12-18T06:26:23;62.20;;;22.53;;
50066;SDS011;35952;52.524;13.340;2022-12-18T06:28:48;67.27;;;25.20;;
50066;SDS011;35952;52.524;13.340;2022-12-18T06:31:14;74.27;;;25.77;;
50066;SDS011;35952;52.524;13.340;2022-12-18T06:33:40;74.43;;;26.20;;
50066;SDS011;35952;52.524;13.340;2022-12-18T06:36:06;67.90;;;26.90;;
50066;SDS011;35952;52.524;13.340;2022-12-18T06:38:37;87.30;;;26.75;;
50066;SDS011;35952;52.524;13.340;2022-12-18T06:41:12;71.50;;;26.05;;
50066;SDS011;35952;52.524;13.340;2022-12-18T06:43:40;61.72;;;25.00;;
50066;SDS011;35952;52.524;13.340;2022-12-18T06:46:06;61.00;;;23.05;;
50066;SDS011;35952;52.524;13.340;2022-12-18T06:48:32;62.85;;;27.02;;
50066;SDS011;35952;52.524;13.340;2022-12-18T06:50:58;66.13;;;25.52;;
50066;SDS011;35952;52.524;13.340;2022-12-18T06:53:24;57.57;;;24.50;;
50066;SDS011;35952;52.524;13.340;2022-12-18T06:55:50;61.10;;;26.40;;
50066;SDS011;35952;52.524;13.340;2022-12-18T06:58:15;65.77;;;25.40;;
50066;SDS011;35952;52.524;13.340;2022-12-18T07:00:41;57.85;;;24.65;;
50066;SDS011;35952;52.524;13.340;2022-12-18T07:03:07;63.50;;;25.17;;
50066;SDS011;35952;52.524;13.340;2022-12-18T07:05:32;60.10;;;22.80;;
50066;SDS011;35952;52.524;13.340;2022-12-18T07:07:58;63.77;;;23.07;;
50066;SDS011;35952;52.524;13.340;2022-12-18T07:10:24;67.60;;;28.17;;
50066;SDS011;35952;52.524;13.340;2022-12-18T07:12:50;59.67;;;22.73;;
50066;SDS011;35952;52.524;13.340;2022-12-18T07:15:15;61.90;;;25.83;;
50066;SDS011;35952;52.524;13.340;2022-12-18T07:17:41;50.87;;;23.07;;
50066;SDS011;35952;52.524;13.340;2022-12-18T07:20:06;55.83;;;23.10;;
50066;SDS011;35952;52.524;13.340;2022-12-18T07:22:33;58.75;;;23.33;;
50066;SDS011;35952;52.524;13.340;2022-12-18T07:24:58;57.37;;;23.70;;
50066;SDS011;35952;52.524;13.340;2022-12-18T07:27:24;51.47;;;21.63;;
50066;SDS011;35952;52.524;13.340;2022-12-18T07:29:49;44.87;;;19.10;;
50066;SDS011;35952;52.524;13.340;2022-12-18T07:32:15;66.50;;;24.07;;
50066;SDS011;35952;52.524;13.340;2022-12-18T07:34:40;53.83;;;19.93;;
50066;SDS011;35952;52.524;13.340;2022-12-18T07:37:06;43.70;;;18.57;;
50066;SDS011;35952;52.524;13.340;2022-12-18T07:39:31;52.63;;;23.17;;
50066;SDS011;35952;52.524;13.340;2022-12-18T07:41:57;45.50;;;19.00;;
50066;SDS011;35952;52.524;13.340;2022-12-18T07:44:41;50.20;;;19.20;;
50066;SDS011;35952;52.524;13.340;2022-12-18T07:47:07;51.33;;;20.60;;
50066;SDS011;35952;52.524;13.340;2022-12-18T07:49:33;49.47;;;22.67;;
50066;SDS011;35952;52.524;13.340;2022-12-18T07:51:59;47.80;;;19.50;;
50066;SDS011;35952;52.524;13.340;2022-12-18T07:54:24;51.40;;;20.50;;
50066;SDS011;35952;52.524;13.340;2022-12-18T07:56:50;54.87;;;22.67;;
50066;SDS011;35952;52.524;13.340;2022-12-18T07:59:17;57.00;;;22.85;;
50066;SDS011;35952;52.524;13.340;2022-12-18T08:01:43;48.03;;;21.58;;
50066;SDS011;35952;52.524;13.340;2022-12-18T08:04:09;56.30;;;23.63;;
50066;SDS011;35952;52.524;13.340;2022-12-18T08:06:34;48.80;;;21.90;;
50066;SDS011;35952;52.524;13.340;2022-12-18T08:09:00;53.87;;;23.83;;
50066;SDS011;35952;52.524;13.340;2022-12-18T08:11:26;50.33;;;24.63;;
50066;SDS011;35952;52.524;13.340;2022-12-18T08:13:53;49.75;;;21.08;;
50066;SDS011;35952;52.524;13.340;2022-12-18T08:16:19;61.10;;;20.85;;
50066;SDS011;35952;52.524;13.340;2022-12-18T08:18:46;48.22;;;20.25;;
50066;SDS011;35952;52.524;13.340;2022-12-18T08:21:15;49.90;;;20.13;;
50066;SDS011;35952;52.524;13.340;2022-12-18T08:23:52;51.42;;;20.15;;
50066;SDS011;35952;52.524;13.340;2022-12-18T08:26:19;46.55;;;18.98;;
50066;SDS011;35952;52.524;13.340;2022-12-18T08:28:45;51.40;;;19.73;;
50066;SDS011;35952;52.524;13.340;2022-12-18T08:31:11;54.53;;;20.27;;
50066;SDS011;35952;52.524;13.340;2022-12-18T08:33:37;44.57;;;19.83;;
50066;SDS011;35952;52.524;13.340;2022-12-18T08:36:03;53.83;;;21.67;;
50066;SDS011;35952;52.524;13.340;2022-12-18T08:38:30;57.17;;;18.60;;
50066;SDS011;35952;52.524;13.340;2022-12-18T08:41:07;54.80;;;19.25;;
50066;SDS011;35952;52.524;13.340;2022-12-18T08:43:34;44.85;;;20.13;;
50066;SDS011;35952;52.524;13.340;2022-12-18T08:46:19;47.22;;;20.50;;
50066;SDS011;35952;52.524;13.340;2022-12-18T08:48:46;49.50;;;21.83;;
50066;SDS011;35952;52.524;13.340;2022-12-18T08:51:12;52.33;;;19.88;;
50066;SDS011;35952;52.524;13.340;2022-12-18T08:53:38;39.47;;;18.73;;
50066;SDS011;35952;52.524;13.340;2022-12-18T08:56:03;49.97;;;20.43;;
50066;SDS011;35952;52.524;13.340;2022-12-18T08:58:29;51.00;;;19.13;;
50066;SDS011;35952;52.524;13.340;2022-12-18T09:01:05;40.90;;;17.80;;
50066;SDS011;35952;52.524;13.340;2022-12-18T09:03:33;55.13;;;22.65;;
50066;SDS011;35952;52.524;13.340;2022-12-18T09:05:59;46.00;;;20.73;;
50066;SDS011;35952;52.524;13.340;2022-12-18T09:08:25;49.67;;;21.47;;
50066;SDS011;35952;52.524;13.340;2022-12-18T09:10:50;48.90;;;18.70;;
50066;SDS011;35952;52.524;13.340;2022-12-18T09:13:16;39.37;;;18.83;;
50066;SDS011;35952;52.524;13.340;2022-12-18T09:15:46;46.92;;;20.75;;
50066;SDS011;35952;52.524;13.340;2022-12-18T09:18:14;48.42;;;18.85;;
50066;SDS011;35952;52.524;13.340;2022-12-18T09:20:41;52.42;;;21.00;;
50066;SDS011;35952;52.524;13.340;2022-12-18T09:23:07;34.87;;;16.47;;
50066;SDS011;35952;52.524;13.340;2022-12-18T09:25:34;47.47;;;19.75;;
50066;SDS011;35952;52.524;13.340;2022-12-18T09:28:01;41.08;;;18.83;;
50066;SDS011;35952;52.524;13.340;2022-12-18T09:30:28;39.45;;;18.88;;
50066;SDS011;35952;52.524;13.340;2022-12-18T09:32:54;36.20;;;18.20;;
50066;SDS011;35952;52.524;13.340;2022-12-18T09:35:20;37.33;;;19.40;;
50066;SDS011;35952;52.524;13.340;2022-12-18T09:37:45;49.53;;;20.90;;
50066;SDS011;35952;52.524;13.340;2022-12-18T09:40:18;43.23;;;17.73;;
50066;SDS011;35952;52.524;13.340;2022-12-18T09:42:48;43.75;;;19.65;;
50066;SDS011;35952;52.524;13.340;2022-12-18T09:45:20;49.60;;;20.90;;
50066;SDS011;35952;52.524;13.340;2022-12-18T09:47:46;42.00;;;18.38;;
50066;SDS011;35952;52.524;13.340;2022-12-18T09:50:20;38.85;;;16.60;;
50066;SDS011;35952;52.524;13.340;2022-12-18T09:52:54;46.25;;;19.38;;
50066;SDS011;35952;52.524;13.340;2022-12-18T09:57:53;40.38;;;20.02;;
50066;SDS011;35952;52.524;13.340;2022-12-18T10:00:26;43.92;;;18.25;;
50066;SDS011;35952;52.524;13.340;2022-12-18T10:02:52;40.07;;;16.03;;
50066;SDS011;35952;52.524;13.340;2022-12-18T10:11:03;46.10;;;17.73;;
50066;SDS011;35952;52.524;13.340;2022-12-18T10:13:52;46.42;;;18.98;;
50066;SDS011;35952;52.524;13.340;2022-12-18T10:24:50;42.78;;;19.08;;
50066;SDS011;35952;52.524;13.340;2022-12-18T10:27:36;46.53;;;17.52;;
50066;SDS011;35952;52.524;13.340;2022-12-18T10:30:04;46.27;;;21.40;;
50066;SDS011;35952;52.524;13.340;2022-12-18T10:32:38;48.58;;;19.17;;
50066;SDS011;35952;52.524;13.340;2022-12-18T10:35:04;49.08;;;18.83;;
50066;SDS011;35952;52.524;13.340;2022-12-18T10:37:36;47.88;;;20.27;;
50066;SDS011;35952;52.524;13.340;2022-12-18T10:40:26;54.45;;;21.88;;
50066;SDS011;35952;52.524;13.340;2022-12-18T10:43:05;55.33;;;20.90;;
50066;SDS011;35952;52.524;13.340;2022-12-18T10:45:39;51.03;;;22.70;;
50066;SDS011;35952;52.524;13.340;2022-12-18T10:48:16;47.65;;;21.02;;
50066;SDS011;35952;52.524;13.340;2022-12-18T10:50:46;49.50;;;20.25;;
50066;SDS011;35952;52.524;13.340;2022-12-18T10:53:17;46.75;;;19.08;;
50066;SDS011;35952;52.524;13.340;2022-12-18T10:55:46;49.28;;;21.83;;
50066;SDS011;35952;52.524;13.340;2022-12-18T11:06:09;51.42;;;20.27;;
50066;SDS011;35952;52.524;13.340;2022-12-18T11:08:44;42.05;;;20.90;;
50066;SDS011;35952;52.524;13.340;2022-12-18T11:11:26;48.28;;;21.25;;
50066;SDS011;35952;52.524;13.340;2022-12-18T11:16:29;47.10;;;19.52;;
50066;SDS011;35952;52.524;13.340;2022-12-18T11:19:09;45.00;;;19.25;;
50066;SDS011;35952;52.524;13.340;2022-12-18T11:21:44;53.90;;;22.02;;
50066;SDS011;35952;52.524;13.340;2022-12-18T11:27:05;49.00;;;19.20;;
50066;SDS011;35952;52.524;13.340;2022-12-18T11:29:40;48.20;;;21.63;;
50066;SDS011;35952;52.524;13.340;2022-12-18T11:34:47;39.95;;;18.23;;
50066;SDS011;35952;52.524;13.340;2022-12-18T11:37:17;48.78;;;19.20;;
50066;SDS011;35952;52.524;13.340;2022-12-18T11:39:46;53.08;;;20.77;;
50066;SDS011;35952;52.524;13.340;2022-12-18T11:42:24;47.60;;;20.60;;
50066;SDS011;35952;52.524;13.340;2022-12-18T11:47:57;41.95;;;21.83;;
50066;SDS011;35952;52.524;13.340;2022-12-18T11:50:29;44.35;;;19.05;;
50066;SDS011;35952;52.524;13.340;2022-12-18T11:53:11;39.70;;;20.77;;
50066;SDS011;35952;52.524;13.340;2022-12-18T12:00:56;41.85;;;18.48;;
50066;SDS011;35952;52.524;13.340;2022-12-18T12:03:52;46.63;;;18.85;;
50066;SDS011;35952;52.524;13.340;2022-12-18T12:06:51;49.95;;;20.13;;
50066;SDS011;35952;52.524;13.340;2022-12-18T12:12:19;46.92;;;18.55;;
50066;SDS011;35952;52.524;13.340;2022-12-18T12:15:27;47.15;;;20.00;;
50066;SDS011;35952;52.524;13.340;2022-12-18T12:18:19;48.25;;;19.42;;
50066;SDS011;35952;52.524;13.340;2022-12-18T12:20:58;46.85;;;17.98;;
50066;SDS011;35952;52.524;13.340;2022-12-18T12:26:17;39.13;;;20.10;;
50066;SDS011;35952;52.524;13.340;2022-12-18T12:31:48;38.63;;;17.50;;
50066;SDS011;35952;52.524;13.340;2022-12-18T12:40:13;41.45;;;17.52;;
50066;SDS011;35952;52.524;13.340;2022-12-18T12:42:47;47.17;;;19.88;;
50066;SDS011;35952;52.524;13.340;2022-12-18T12:45:39;39.40;;;18.55;;
50066;SDS011;35952;52.524;13.340;2022-12-18T12:51:19;42.03;;;20.27;;
50066;SDS011;35952;52.524;13.340;2022-12-18T12:53:47;43.20;;;20.27;;
50066;SDS011;35952;52.524;13.340;2022-12-18T12:56:14;42.30;;;18.52;;
50066;SDS011;35952;52.524;13.340;2022-12-18T12:58:48;38.22;;;20.95;;
50066;SDS011;35952;52.524;13.340;2022-12-18T13:01:27;39.55;;;19.20;;
50066;SDS011;35952;52.524;13.340;2022-12-18T13:04:33;37.30;;;17.20;;
50066;SDS011;35952;52.524;13.340;2022-12-18T13:07:14;39.75;;;20.17;;
50066;SDS011;35952;52.524;13.340;2022-12-18T13:12:58;41.55;;;18.08;;
50066;SDS011;35952;52.524;13.340;2022-12-18T13:15:28;34.45;;;17.30;;
50066;SDS011;35952;52.524;13.340;2022-12-18T13:25:48;39.60;;;19.15;;
50066;SDS011;35952;52.524;13.340;2022-12-18T13:34:41;34.63;;;16.75;;
50066;SDS011;35952;52.524;13.340;2022-12-18T13:36:46;39.72;;;18.67;;
50066;SDS011;35952;52.524;13.340;2022-12-18T13:41:44;37.28;;;17.67;;
50066;SDS011;35952;52.524;13.340;2022-12-18T13:44:12;29.95;;;18.15;;
50066;SDS011;35952;52.524;13.340;2022-12-18T13:46:50;36.47;;;19.52;;
50066;SDS011;35952;52.524;13.340;2022-12-18T13:52:03;48.67;;;20.05;;
50066;SDS011;35952;52.524;13.340;2022-12-18T13:54:45;36.70;;;19.35;;
50066;SDS011;35952;52.524;13.340;2022-12-18T14:02:47;38.28;;;19.63;;
50066;SDS011;35952;52.524;13.340;2022-12-18T14:05:27;32.38;;;18.35;;
50066;SDS011;35952;52.524;13.340;2022-12-18T14:08:01;42.05;;;20.85;;
50066;SDS011;35952;52.524;13.340;2022-12-18T14:10:39;35.92;;;19.70;;
50066;SDS011;35952;52.524;13.340;2022-12-18T14:13:09;43.95;;;21.40;;
50066;SDS011;35952;52.524;13.340;2022-12-18T14:15:41;36.88;;;20.15;;
50066;SDS011;35952;52.524;13.340;2022-12-18T14:21:24;35.10;;;19.77;;
50066;SDS011;35952;52.524;13.340;2022-12-18T14:26:36;47.92;;;23.90;;
50066;SDS011;35952;52.524;13.340;2022-12-18T14:32:03;43.83;;;22.67;;
50066;SDS011;35952;52.524;13.340;2022-12-18T14:34:30;43.38;;;22.63;;
50066;SDS011;35952;52.524;13.340;2022-12-18T14:36:56;46.40;;;23.97;;
50066;SDS011;35952;52.524;13.340;2022-12-18T14:39:21;57.10;;;22.87;;
50066;SDS011;35952;52.524;13.340;2022-12-18T14:41:48;47.73;;;23.97;;
50066;SDS011;35952;52.524;13.340;2022-12-18T14:44:14;48.53;;;19.48;;
50066;SDS011;35952;52.524;13.340;2022-12-18T14:46:41;46.47;;;21.43;;
50066;SDS011;35952;52.524;13.340;2022-12-18T14:51:53;45.40;;;21.80;;
50066;SDS011;35952;52.524;13.340;2022-12-18T14:54:21;40.90;;;21.75;;
50066;SDS011;35952;52.524;13.340;2022-12-18T14:57:35;45.33;;;20.40;;
50066;SDS011;35952;52.524;13.340;2022-12-18T14:59:46;47.13;;;23.75;;
50066;SDS011;35952;52.524;13.340;2022-12-18T15:04:48;41.65;;;21.95;;
50066;SDS011;35952;52.524;13.340;2022-12-18T15:07:51;43.22;;;22.42;;
50066;SDS011;35952;52.524;13.340;2022-12-18T15:10:24;41.30;;;21.20;;
50066;SDS011;35952;52.524;13.340;2022-12-18T15:18:03;32.45;;;19.05;;
50066;SDS011;35952;52.524;13.340;2022-12-18T15:20:54;37.88;;;19.65;;
50066;SDS011;35952;52.524;13.340;2022-12-18T15:26:08;29.45;;;17.20;;
50066;SDS011;35952;52.524;13.340;2022-12-18T15:28:56;31.25;;;16.90;;
50066;SDS011;35952;52.524;13.340;2022-12-18T15:36:22;31.70;;;18.53;;
50066;SDS011;35952;52.524;13.340;2022-12-18T15:38:57;36.85;;;19.00;;
50066;SDS011;35952;52.524;13.340;2022-12-18T15:41:23;28.23;;;16.60;;
50066;SDS011;35952;52.524;13.340;2022-12-18T15:43:49;37.10;;;20.90;;
50066;SDS011;35952;52.524;13.340;2022-12-18T15:46:19;33.25;;;19.48;;
50066;SDS011;35952;52.524;13.340;2022-12-18T15:51:17;38.25;;;19.70;;
50066;SDS011;35952;52.524;13.340;2022-12-18T15:53:46;36.63;;;22.20;;
50066;SDS011;35952;52.524;13.340;2022-12-18T15:56:13;36.83;;;20.80;;
50066;SDS011;35952;52.524;13.340;2022-12-18T15:58:59;46.30;;;23.45;;
50066;SDS011;35952;52.524;13.340;2022-12-18T16:01:26;34.28;;;20.02;;
50066;SDS011;35952;52.524;13.340;2022-12-18T16:03:56;35.30;;;18.35;;
50066;SDS011;35952;52.524;13.340;2022-12-18T16:06:22;31.15;;;17.77;;
50066;SDS011;35952;52.524;13.340;2022-12-18T16:08:55;27.42;;;15.35;;
50066;SDS011;35952;52.524;13.340;2022-12-18T16:11:21;33.83;;;17.58;;
50066;SDS011;35952;52.524;13.340;2022-12-18T16:14:03;25.42;;;16.55;;
50066;SDS011;35952;52.524;13.340;2022-12-18T16:16:40;32.03;;;17.85;;
50066;SDS011;35952;52.524;13.340;2022-12-18T16:19:06;29.75;;;18.38;;
50066;SDS011;35952;52.524;13.340;2022-12-18T16:21:32;34.43;;;18.90;;
50066;SDS011;35952;52.524;13.340;2022-12-18T16:23:57;31.57;;;17.47;;
50066;SDS011;35952;52.524;13.340;2022-12-18T16:26:23;33.97;;;19.87;;
50066;SDS011;35952;52.524;13.340;2022-12-18T16:28:48;32.30;;;17.27;;
50066;SDS011;35952;52.524;13.340;2022-12-18T16:31:14;27.93;;;17.83;;
50066;SDS011;35952;52.524;13.340;2022-12-18T16:33:39;33.10;;;18.57;;
50066;SDS011;35952;52.524;13.340;2022-12-18T16:36:05;28.60;;;16.80;;
50066;SDS011;35952;52.524;13.340;2022-12-18T16:38:31;30.97;;;16.90;;